Arctic Fury — WDE9335 — position and weather

sailwx.info

Track history (hours):
 
Tides and Currents Weather Stations Pressure Air Temp Water Temp Dewpoint Dewpoint Depression Visibility Wind Speed Wind Dir Waves Ship Positions

Arctic Fury

Owner: Fury Group Inc, Seattle, WA. More information available from US FCC via Universal Licensing System and Coast Guard Vessel Documentation Center.

Last reported at 2015-Jul-06 13:33 UTC. Time now 2015-Jul-06 13:35 UTC.
Position N 47°39' W 122°23'.

Length 43 m; draft 5 m.

Type: Fishing. MMSI: 366468000.

Date/timePositionNaut miles runAvg speedWind from/ knotsBaromVisibWave heightAir tempDewpointWater temp
2015-Jul-06 13:33N 47°39' W 122°23'0 0.0
2015-Jul-06 12:33N 47°39' W 122°23'0 0.0
2015-Jul-06 11:34N 47°39' W 122°23'0 0.0
2015-Jul-06 10:33N 47°39' W 122°23'0 0.0
2015-Jul-06 09:34N 47°39' W 122°23'0 0.0
2015-Jul-06 08:33N 47°39' W 122°23'0 0.0
2015-Jul-06 07:33N 47°39' W 122°23'0 0.0
2015-Jul-06 06:34N 47°39' W 122°23'0 0.0
2015-Jul-06 05:33N 47°39' W 122°23'0 0.0
2015-Jul-06 04:34N 47°39' W 122°23'0 0.0
2015-Jul-06 03:33N 47°39' W 122°23'0 0.0
2015-Jul-06 02:33N 47°39' W 122°23'0 0.0
2015-Jul-06 01:34N 47°39' W 122°23'0 0.0
2015-Jul-06 00:34N 47°39' W 122°23'0 0.0
2015-Jul-05 23:33N 47°39' W 122°23'0 0.0
2015-Jul-05 22:33N 47°39' W 122°23'0 0.0
2015-Jul-05 21:34N 47°39' W 122°23'0 0.0
2015-Jul-05 20:33N 47°39' W 122°23'0 0.0
2015-Jul-05 19:34N 47°39' W 122°23'0 0.0
2015-Jul-05 18:34N 47°39' W 122°23'0 0.0
2015-Jul-05 17:33N 47°39' W 122°23'0 0.0
2015-Jul-05 16:34N 47°39' W 122°23'0 0.0
2015-Jul-05 15:34N 47°39' W 122°23'0 0.0
2015-Jul-05 14:33N 47°39' W 122°23'0 0.0
2015-Jul-05 13:34N 47°39' W 122°23'0 0.0
2015-Jul-05 12:34N 47°39' W 122°23'0 0.0
2015-Jul-05 11:33N 47°39' W 122°23'0 0.0
2015-Jul-05 10:34N 47°39' W 122°23'0 0.0
2015-Jul-05 09:34N 47°39' W 122°23'0 0.0
2015-Jul-05 08:33N 47°39' W 122°23'0 0.0
2015-Jul-05 07:33N 47°39' W 122°23'0 0.0
2015-Jul-05 06:34N 47°39' W 122°23'0 0.0
2015-Jul-05 05:34N 47°39' W 122°23'0 0.0
2015-Jul-05 04:34N 47°39' W 122°23'0 0.2
2015-Jul-05 03:33N 47°40' W 122°23'5 5.4
2015-Jul-05 02:33N 47°44' W 122°26'1010.0
2015-Jul-05 01:33N 47°54' W 122°30'2211.0
2015-Jul-04 23:33N 48°11' W 122°52'1111.2
2015-Jul-04 22:33N 48°12' W 123°08'1110.6
2015-Jul-04 21:30N 48°12' W 123°25'10 9.3
2015-Jul-04 20:28N 48°12' W 123°40'7 8.0
2015-Jul-04 19:32N 48°12' W 123°51'8 7.8
2015-Jul-04 18:32N 48°15' W 124°02'8 8.4
2015-Jul-04 17:33N 48°18' W 124°13'7 7.5
2015-Jul-04 16:33N 48°21' W 124°24'8 7.8
2015-Jul-04 15:33N 48°24' W 124°34'7 7.2
2015-Jul-04 14:32N 48°26' W 124°45'9 9.2
2015-Jul-04 13:32N 48°17' W 124°50'13 9.2
2015-Jul-04 12:10N 48°05' W 124°49'6 9.5
2015-Jul-04 11:33N 47°59' W 124°46'19 9.1
2015-Jul-04 09:31N 47°42' W 124°37'19 9.4
2015-Jul-04 07:33N 47°24' W 124°28'9 9.2
2015-Jul-04 06:33N 47°16' W 124°23'10 9.0
2015-Jul-04 05:25N 47°06' W 124°18'8 9.2
2015-Jul-04 04:33N 46°58' W 124°15'89 4.3
2015-Jul-03 07:33N 45°30' W 124°29'15 7.4
2015-Jul-03 05:29N 45°14' W 124°32'15 6.7
2015-Jul-03 03:18N 44°60' W 124°34'5 6.3
2015-Jul-03 02:33N 44°55' W 124°35'6 6.4
2015-Jul-03 01:33N 44°49' W 124°36'  
Track history (hours):
 
Tides and Currents Weather Stations Pressure Air Temp Water Temp Dewpoint Dewpoint Depression Visibility Wind Speed Wind Dir Waves Ship Positions

Arctic Fury

Owner: Fury Group Inc, Seattle, WA. More information available from US FCC via Universal Licensing System and Coast Guard Vessel Documentation Center.

Last reported at 2015-Jul-06 13:33 UTC. Time now 2015-Jul-06 13:35 UTC.
Position N 47°39' W 122°23'.

Length 43 m; draft 5 m.

Type: Fishing. MMSI: 366468000.

Date/timePositionNaut miles runAvg speedWind from/ knotsBaromVisibWave heightAir tempDewpointWater temp
2015-Jul-06 13:33N 47°39' W 122°23'0 0.0
2015-Jul-06 12:33N 47°39' W 122°23'0 0.0
2015-Jul-06 11:34N 47°39' W 122°23'0 0.0
2015-Jul-06 10:33N 47°39' W 122°23'0 0.0
2015-Jul-06 09:34N 47°39' W 122°23'0 0.0
2015-Jul-06 08:33N 47°39' W 122°23'0 0.0
2015-Jul-06 07:33N 47°39' W 122°23'0 0.0
2015-Jul-06 06:34N 47°39' W 122°23'0 0.0
2015-Jul-06 05:33N 47°39' W 122°23'0 0.0
2015-Jul-06 04:34N 47°39' W 122°23'0 0.0
2015-Jul-06 03:33N 47°39' W 122°23'0 0.0
2015-Jul-06 02:33N 47°39' W 122°23'0 0.0
2015-Jul-06 01:34N 47°39' W 122°23'0 0.0
2015-Jul-06 00:34N 47°39' W 122°23'0 0.0
2015-Jul-05 23:33N 47°39' W 122°23'0 0.0
2015-Jul-05 22:33N 47°39' W 122°23'0 0.0
2015-Jul-05 21:34N 47°39' W 122°23'0 0.0
2015-Jul-05 20:33N 47°39' W 122°23'0 0.0
2015-Jul-05 19:34N 47°39' W 122°23'0 0.0
2015-Jul-05 18:34N 47°39' W 122°23'0 0.0
2015-Jul-05 17:33N 47°39' W 122°23'0 0.0
2015-Jul-05 16:34N 47°39' W 122°23'0 0.0
2015-Jul-05 15:34N 47°39' W 122°23'0 0.0
2015-Jul-05 14:33N 47°39' W 122°23'0 0.0
2015-Jul-05 13:34N 47°39' W 122°23'0 0.0
2015-Jul-05 12:34N 47°39' W 122°23'0 0.0
2015-Jul-05 11:33N 47°39' W 122°23'0 0.0
2015-Jul-05 10:34N 47°39' W 122°23'0 0.0
2015-Jul-05 09:34N 47°39' W 122°23'0 0.0
2015-Jul-05 08:33N 47°39' W 122°23'0 0.0
2015-Jul-05 07:33N 47°39' W 122°23'0 0.0
2015-Jul-05 06:34N 47°39' W 122°23'0 0.0
2015-Jul-05 05:34N 47°39' W 122°23'0 0.0
2015-Jul-05 04:34N 47°39' W 122°23'0 0.2
2015-Jul-05 03:33N 47°40' W 122°23'5 5.4
2015-Jul-05 02:33N 47°44' W 122°26'1010.0
2015-Jul-05 01:33N 47°54' W 122°30'2211.0
2015-Jul-04 23:33N 48°11' W 122°52'1111.2
2015-Jul-04 22:33N 48°12' W 123°08'1110.6
2015-Jul-04 21:30N 48°12' W 123°25'10 9.3
2015-Jul-04 20:28N 48°12' W 123°40'7 8.0
2015-Jul-04 19:32N 48°12' W 123°51'8 7.8
2015-Jul-04 18:32N 48°15' W 124°02'8 8.4
2015-Jul-04 17:33N 48°18' W 124°13'7 7.5
2015-Jul-04 16:33N 48°21' W 124°24'8 7.8
2015-Jul-04 15:33N 48°24' W 124°34'7 7.2
2015-Jul-04 14:32N 48°26' W 124°45'9 9.2
2015-Jul-04 13:32N 48°17' W 124°50'13 9.2
2015-Jul-04 12:10N 48°05' W 124°49'6 9.5
2015-Jul-04 11:33N 47°59' W 124°46'19 9.1
2015-Jul-04 09:31N 47°42' W 124°37'19 9.4
2015-Jul-04 07:33N 47°24' W 124°28'9 9.2
2015-Jul-04 06:33N 47°16' W 124°23'10 9.0
2015-Jul-04 05:25N 47°06' W 124°18'8 9.2
2015-Jul-04 04:33N 46°58' W 124°15'89 4.3
2015-Jul-03 07:33N 45°30' W 124°29'15 7.4
2015-Jul-03 05:29N 45°14' W 124°32'15 6.7
2015-Jul-03 03:18N 44°60' W 124°34'5 6.3
2015-Jul-03 02:33N 44°55' W 124°35'6 6.4
2015-Jul-03 01:33N 44°49' W 124°36'  

Dump ship's entire track history